createdAt,value
2022-10-28T00:01:33.537Z,9.51
2022-10-28T00:04:03.521Z,9.54
2022-10-28T00:06:33.804Z,9.47
2022-10-28T00:09:05.530Z,9.43
2022-10-28T00:11:37.101Z,9.34
2022-10-28T00:14:08.335Z,9.25
2022-10-28T00:16:38.703Z,9.31
2022-10-28T00:19:13.091Z,9.27
2022-10-28T00:21:43.386Z,9.23
2022-10-28T00:24:14.639Z,9.15
2022-10-28T00:26:44.588Z,9.13
2022-10-28T00:29:15.492Z,9.05
2022-10-28T00:31:44.990Z,9.04
2022-10-28T00:34:18.555Z,8.94
2022-10-28T00:36:48.612Z,8.97
2022-10-28T00:39:20.471Z,9.09
2022-10-28T00:41:51.193Z,9.11
2022-10-28T00:44:53.040Z,9.07
2022-10-28T00:47:33.031Z,9.09
2022-10-28T00:50:12.855Z,8.98
2022-10-28T00:52:42.731Z,8.86
2022-10-28T00:55:12.204Z,8.88
2022-10-28T00:57:43.592Z,8.86
2022-10-28T01:00:14.217Z,8.89
2022-10-28T01:02:47.491Z,8.86
2022-10-28T01:05:21.797Z,8.81
2022-10-28T01:07:53.382Z,8.80
2022-10-28T01:10:37.796Z,8.74
2022-10-28T01:13:15.090Z,8.77
2022-10-28T01:15:51.722Z,8.81
2022-10-28T01:18:33.808Z,8.78
2022-10-28T01:21:30.524Z,8.86
2022-10-28T01:24:20.891Z,8.84
2022-10-28T01:27:13.302Z,8.77
2022-10-28T01:30:08.121Z,8.78
2022-10-28T01:32:59.626Z,8.66
2022-10-28T01:35:34.458Z,8.50
2022-10-28T01:38:23.502Z,8.42
2022-10-28T01:41:07.848Z,8.29
2022-10-28T01:43:42.361Z,8.30
2022-10-28T01:46:17.034Z,8.34
2022-10-28T01:48:52.199Z,8.38
2022-10-28T01:51:27.804Z,8.38
2022-10-28T01:54:01.093Z,8.35
2022-10-28T01:56:35.061Z,8.27
2022-10-28T01:59:06.521Z,8.22
2022-10-28T02:01:37.365Z,8.26
2022-10-28T02:04:07.413Z,8.24
2022-10-28T02:06:37.924Z,8.34
2022-10-28T02:09:29.186Z,8.48
2022-10-28T02:12:27.373Z,8.48
2022-10-28T02:15:17.916Z,8.51
2022-10-28T02:17:57.553Z,8.52
2022-10-28T02:20:35.940Z,8.57
2022-10-28T02:23:17.631Z,8.46
2022-10-28T02:25:53.457Z,8.48
2022-10-28T02:28:28.662Z,8.43
2022-10-28T02:31:04.379Z,8.40
2022-10-28T02:33:38.264Z,8.33
2022-10-28T02:36:12.434Z,8.31
2022-10-28T02:38:45.706Z,8.27
2022-10-28T02:41:21.506Z,8.18
2022-10-28T02:43:54.888Z,8.14
2022-10-28T02:46:27.984Z,8.19
2022-10-28T02:49:03.211Z,8.18
2022-10-28T02:51:38.733Z,8.18
2022-10-28T02:54:11.684Z,8.22
2022-10-28T02:56:46.825Z,8.27
2022-10-28T02:59:15.388Z,8.36
2022-10-28T03:01:44.066Z,8.48
2022-10-28T03:04:12.507Z,8.44
2022-10-28T03:06:42.140Z,8.38
2022-10-28T03:09:10.492Z,8.30
2022-10-28T03:11:38.829Z,8.28
2022-10-28T03:14:10.630Z,8.35
2022-10-28T03:16:41.573Z,8.44
2022-10-28T03:19:10.217Z,8.49
2022-10-28T03:21:38.855Z,8.54
2022-10-28T03:24:09.251Z,8.51
2022-10-28T03:26:37.544Z,8.51
2022-10-28T03:29:06.185Z,8.41
2022-10-28T03:31:34.843Z,8.40
2022-10-28T03:34:03.490Z,8.39
2022-10-28T03:36:32.114Z,8.33
2022-10-28T03:39:00.883Z,8.32
2022-10-28T03:41:30.562Z,8.26
2022-10-28T03:43:59.205Z,8.22
2022-10-28T03:46:29.103Z,8.19
2022-10-28T03:48:59.737Z,8.14
2022-10-28T03:51:28.363Z,8.13
2022-10-28T03:53:57.165Z,8.12
2022-10-28T03:56:25.447Z,8.07
2022-10-28T03:58:55.475Z,8.08
2022-10-28T04:01:23.968Z,8.08
2022-10-28T04:03:52.666Z,8.10
2022-10-28T04:06:21.253Z,8.13
2022-10-28T04:08:49.577Z,8.16
2022-10-28T04:11:17.889Z,8.10
2022-10-28T04:13:46.146Z,8.09
2022-10-28T04:16:15.748Z,8.08
2022-10-28T04:18:44.362Z,8.04
2022-10-28T04:21:13.049Z,8.00
2022-10-28T04:23:41.716Z,7.94
2022-10-28T04:26:10.352Z,7.85
2022-10-28T04:28:38.729Z,7.81
2022-10-28T04:31:07.473Z,7.84
2022-10-28T04:33:37.468Z,7.85
2022-10-28T04:36:06.508Z,7.89
2022-10-28T04:38:35.154Z,7.92
2022-10-28T04:41:03.859Z,7.89
2022-10-28T04:43:32.480Z,7.87
2022-10-28T04:46:05.819Z,7.88
2022-10-28T04:48:36.021Z,7.83
2022-10-28T04:51:05.259Z,7.75
2022-10-28T04:53:33.886Z,7.75
2022-10-28T04:56:02.652Z,7.75
2022-10-28T04:58:31.271Z,7.73
2022-10-28T05:00:59.593Z,7.76
2022-10-28T05:03:28.253Z,7.70
2022-10-28T05:05:58.214Z,7.67
2022-10-28T05:08:26.790Z,7.71
2022-10-28T05:10:55.825Z,7.71
2022-10-28T05:13:24.499Z,7.74
2022-10-28T05:15:53.180Z,7.70
2022-10-28T05:18:21.475Z,7.68
2022-10-28T05:20:54.671Z,7.66
2022-10-28T05:23:27.289Z,7.61
2022-10-28T05:25:58.294Z,7.61
2022-10-28T05:28:26.920Z,7.56
2022-10-28T05:30:55.563Z,7.48
2022-10-28T05:33:24.561Z,7.51
2022-10-28T05:35:53.306Z,7.55
2022-10-28T05:38:23.334Z,7.58
2022-10-28T05:40:51.948Z,7.63
2022-10-28T05:43:20.591Z,7.72
2022-10-28T05:45:54.167Z,7.76
2022-10-28T05:48:22.900Z,7.75
2022-10-28T05:50:51.504Z,7.77
2022-10-28T05:53:20.144Z,7.79
2022-10-28T05:55:49.760Z,7.77
2022-10-28T05:58:18.049Z,7.81
2022-10-28T06:00:46.688Z,7.94
2022-10-28T06:03:15.320Z,7.97
2022-10-28T06:05:45.939Z,7.87
2022-10-28T06:08:15.696Z,7.84
2022-10-28T06:10:55.533Z,7.77
2022-10-28T06:13:24.234Z,7.77
2022-10-28T06:15:53.313Z,7.82
2022-10-28T06:18:23.241Z,8.00
2022-10-28T06:20:53.698Z,8.16
2022-10-28T06:23:22.662Z,8.25
2022-10-28T06:28:26.613Z,8.44
2022-10-28T06:31:00.739Z,8.47
2022-10-28T06:33:29.422Z,8.54
2022-10-28T06:35:58.259Z,8.68
2022-10-28T06:38:28.183Z,8.80
2022-10-28T06:40:59.196Z,8.87
2022-10-28T06:43:28.175Z,8.92
2022-10-28T06:46:00.543Z,9.06
2022-10-28T06:48:30.719Z,9.20
2022-10-28T06:50:59.419Z,9.27
2022-10-28T06:53:28.071Z,9.29
2022-10-28T06:55:57.575Z,9.41
2022-10-28T06:58:27.840Z,9.53
2022-10-28T07:00:56.490Z,9.60
2022-10-28T07:03:25.243Z,9.55
2022-10-28T07:05:53.552Z,9.56
2022-10-28T07:08:21.924Z,9.61
2022-10-28T07:10:56.310Z,9.62
2022-10-28T07:13:26.730Z,9.74
2022-10-28T07:15:57.112Z,9.85
2022-10-28T07:18:27.015Z,9.98
2022-10-28T07:20:55.795Z,10.06
2022-10-28T07:23:24.375Z,10.24
2022-10-28T07:25:57.426Z,10.39
2022-10-28T07:28:28.716Z,10.54
2022-10-28T07:31:01.220Z,10.64
2022-10-28T07:33:29.954Z,10.83
2022-10-28T07:35:58.592Z,11.06
2022-10-28T07:38:27.570Z,10.81
2022-10-28T07:40:55.927Z,10.89
2022-10-28T07:43:25.990Z,11.11
2022-10-28T07:45:58.010Z,11.14
2022-10-28T07:48:26.938Z,11.24
2022-10-28T07:50:55.625Z,11.32
2022-10-28T07:53:27.727Z,11.41
2022-10-28T07:55:58.283Z,11.44
2022-10-28T07:58:28.623Z,11.52
2022-10-28T08:00:57.277Z,11.58
2022-10-28T08:03:34.563Z,11.63
2022-10-28T08:06:09.339Z,11.79
2022-10-28T08:08:38.462Z,11.91
2022-10-28T08:11:13.999Z,12.04
2022-10-28T08:13:44.283Z,12.27
2022-10-28T08:16:13.360Z,12.21
2022-10-28T08:18:42.147Z,12.28
2022-10-28T08:21:12.071Z,12.34
2022-10-28T08:23:41.459Z,12.39
2022-10-28T08:26:10.396Z,12.64
2022-10-28T08:28:39.014Z,12.74
2022-10-28T08:31:10.211Z,12.84
2022-10-28T08:33:40.243Z,12.91
2022-10-28T08:36:10.888Z,12.90
2022-10-28T08:38:45.144Z,12.81
2022-10-28T08:41:45.715Z,12.72
2022-10-28T08:44:53.282Z,12.85
2022-10-28T08:47:35.810Z,12.89
2022-10-28T08:50:12.784Z,12.90
2022-10-28T08:52:47.131Z,12.98
2022-10-28T08:55:22.828Z,12.96
2022-10-28T08:57:56.442Z,13.24
2022-10-28T09:00:28.420Z,14.06
2022-10-28T09:03:14.843Z,13.84
2022-10-28T09:05:45.683Z,14.45
2022-10-28T09:08:24.492Z,15.03
2022-10-28T09:11:17.169Z,14.99
2022-10-28T09:13:59.986Z,14.59
2022-10-28T09:16:37.083Z,15.00
2022-10-28T09:19:16.714Z,15.91
2022-10-28T09:21:52.028Z,16.94
2022-10-28T09:24:26.245Z,17.34
2022-10-28T09:27:07.790Z,17.80
2022-10-28T09:29:46.860Z,18.75
2022-10-28T09:32:24.470Z,20.00
2022-10-28T09:35:03.538Z,20.21
2022-10-28T09:37:39.089Z,19.63
2022-10-28T09:40:16.983Z,19.97
2022-10-28T09:43:00.449Z,20.66
2022-10-28T09:45:33.017Z,21.26
2022-10-28T09:48:07.113Z,21.74
2022-10-28T09:50:36.810Z,22.09
2022-10-28T09:53:16.188Z,21.54
2022-10-28T09:55:44.760Z,20.24
2022-10-28T09:58:14.869Z,20.14
2022-10-28T10:00:43.598Z,20.10
2022-10-28T10:03:12.331Z,19.97
2022-10-28T10:05:46.152Z,21.04
2022-10-28T10:08:18.396Z,21.21
2022-10-28T10:10:51.014Z,21.85
2022-10-28T10:13:25.050Z,21.18
2022-10-28T10:15:58.263Z,21.28
2022-10-28T10:18:32.787Z,21.34
2022-10-28T10:21:02.786Z,21.97
2022-10-28T10:23:33.998Z,22.17
2022-10-28T10:26:08.072Z,22.16
2022-10-28T10:28:46.210Z,21.28
2022-10-28T10:31:22.128Z,21.17
2022-10-28T10:33:53.841Z,20.27
2022-10-28T10:36:28.848Z,19.18
2022-10-28T10:39:00.173Z,18.31
2022-10-28T10:41:35.883Z,17.99
2022-10-28T10:44:24.845Z,18.23
2022-10-28T10:47:22.670Z,19.32
2022-10-28T10:49:52.136Z,20.57
2022-10-28T10:52:26.226Z,21.98
2022-10-28T10:55:07.646Z,22.80
2022-10-28T10:57:36.817Z,23.36
2022-10-28T11:00:06.690Z,24.74
2022-10-28T11:02:39.896Z,25.08
2022-10-28T11:05:11.459Z,24.98
2022-10-28T11:07:49.509Z,25.08
2022-10-28T11:10:27.092Z,24.74
2022-10-28T11:12:57.827Z,25.12
2022-10-28T11:15:29.776Z,24.98
2022-10-28T11:18:02.125Z,25.41
2022-10-28T11:20:44.017Z,25.25
2022-10-28T11:23:40.382Z,25.25
2022-10-28T11:26:14.675Z,25.52
2022-10-28T11:29:08.448Z,24.52
2022-10-28T11:32:07.789Z,23.55
2022-10-28T11:34:56.126Z,21.99
2022-10-28T11:37:42.561Z,22.59
2022-10-28T11:40:27.608Z,23.19
2022-10-28T11:43:12.424Z,22.92
2022-10-28T11:45:51.770Z,22.86
2022-10-28T11:48:40.617Z,22.37
2022-10-28T11:51:26.807Z,22.24
2022-10-28T11:54:32.639Z,23.34
2022-10-28T11:57:10.117Z,22.95
2022-10-28T12:00:00.436Z,23.30
2022-10-28T12:02:56.202Z,24.95
2022-10-28T12:05:32.776Z,25.13
2022-10-28T12:08:22.637Z,25.69
2022-10-28T12:11:12.996Z,25.62
2022-10-28T12:13:58.072Z,26.01
2022-10-28T12:16:36.641Z,26.65
2022-10-28T12:19:14.233Z,27.22
2022-10-28T12:21:50.952Z,27.85
2022-10-28T12:24:23.098Z,28.03
2022-10-28T12:26:57.245Z,27.74
2022-10-28T12:29:37.199Z,27.81
2022-10-28T12:32:11.541Z,27.12
2022-10-28T12:34:44.421Z,27.28
2022-10-28T12:37:21.706Z,26.89
2022-10-28T12:40:00.720Z,27.38
2022-10-28T12:42:35.149Z,27.14
2022-10-28T12:45:10.961Z,27.49
2022-10-28T12:47:46.627Z,27.48
2022-10-28T12:50:26.702Z,27.48
2022-10-28T12:53:07.580Z,26.69
2022-10-28T12:55:42.517Z,26.63
2022-10-28T12:58:16.709Z,27.18
2022-10-28T13:00:50.760Z,26.45
2022-10-28T13:03:19.567Z,26.73
2022-10-28T13:06:05.402Z,26.00
2022-10-28T13:08:50.540Z,25.32
2022-10-28T13:11:53.024Z,26.11
2022-10-28T13:14:58.019Z,25.12
2022-10-28T13:17:47.111Z,23.51
2022-10-28T13:20:39.617Z,23.08
2022-10-28T13:23:28.916Z,22.95
2022-10-28T13:26:24.128Z,22.19
2022-10-28T13:28:56.300Z,22.15
2022-10-28T13:31:41.465Z,21.87
2022-10-28T13:34:12.760Z,21.83
2022-10-28T13:36:43.427Z,22.26
2022-10-28T13:39:26.883Z,23.59
2022-10-28T13:42:28.621Z,24.15
2022-10-28T13:44:58.777Z,24.58
2022-10-28T13:47:31.671Z,25.60
2022-10-28T13:50:32.981Z,25.25
2022-10-28T13:53:46.462Z,23.68
2022-10-28T13:56:37.866Z,24.35
2022-10-28T13:59:18.229Z,24.75
2022-10-28T14:02:35.620Z,25.20
2022-10-28T14:05:09.114Z,26.14
2022-10-28T14:07:51.283Z,26.22
2022-10-28T14:10:26.119Z,25.76
2022-10-28T14:12:58.468Z,25.96
2022-10-28T14:15:30.557Z,25.77
2022-10-28T14:18:22.619Z,25.79
2022-10-28T14:21:01.600Z,26.09
2022-10-28T14:24:31.941Z,26.11
2022-10-28T14:27:31.739Z,25.69
2022-10-28T14:30:22.537Z,25.39
2022-10-28T14:33:22.345Z,25.23
2022-10-28T14:36:23.713Z,24.43
2022-10-28T14:39:16.880Z,22.94
2022-10-28T14:42:08.161Z,21.62
2022-10-28T14:45:04.332Z,21.08
2022-10-28T14:48:11.239Z,20.35
2022-10-28T14:50:45.032Z,19.80
2022-10-28T14:53:19.701Z,19.53
2022-10-28T14:55:59.715Z,19.29
2022-10-28T14:58:32.608Z,19.13
2022-10-28T15:01:19.825Z,18.86
2022-10-28T15:03:52.840Z,18.66
2022-10-28T15:06:37.414Z,18.46
2022-10-28T15:09:19.870Z,18.24
2022-10-28T15:11:55.919Z,17.99
2022-10-28T15:14:38.250Z,17.38
2022-10-28T15:17:15.474Z,17.06
2022-10-28T15:19:45.442Z,17.02
2022-10-28T15:22:17.915Z,16.98
2022-10-28T15:24:55.673Z,16.83
2022-10-28T15:27:27.099Z,16.63
2022-10-28T15:29:56.703Z,16.59
2022-10-28T15:32:33.628Z,16.55
2022-10-28T15:35:39.443Z,16.37
2022-10-28T15:38:31.924Z,16.41
2022-10-28T15:41:00.858Z,16.40
2022-10-28T15:43:31.927Z,16.36
2022-10-28T15:46:11.341Z,16.33
2022-10-28T15:48:39.917Z,16.27
2022-10-28T15:51:17.086Z,16.21
2022-10-28T15:53:46.214Z,16.12
2022-10-28T15:56:23.984Z,16.05
2022-10-28T15:59:16.861Z,15.99
2022-10-28T16:01:45.654Z,16.11
2022-10-28T16:04:42.149Z,16.22
2022-10-28T16:07:11.269Z,16.19
2022-10-28T16:09:46.970Z,16.05
2022-10-28T16:12:19.330Z,15.85
2022-10-28T16:14:54.918Z,15.71
2022-10-28T16:17:27.073Z,15.37
2022-10-28T16:19:58.248Z,15.10
2022-10-28T16:22:29.508Z,14.94
2022-10-28T16:24:58.516Z,14.78
2022-10-28T16:27:29.035Z,14.58
2022-10-28T16:29:59.345Z,14.36
2022-10-28T16:32:31.841Z,14.30
2022-10-28T16:35:02.837Z,14.28
2022-10-28T16:37:33.697Z,14.29
2022-10-28T16:40:02.367Z,14.35
2022-10-28T16:42:31.219Z,14.44
2022-10-28T16:45:00.909Z,14.35
2022-10-28T16:47:29.599Z,14.36
2022-10-28T16:49:58.280Z,14.39
2022-10-28T16:52:30.010Z,14.33
2022-10-28T16:54:59.230Z,14.42
2022-10-28T16:57:28.306Z,14.56
2022-10-28T16:59:57.172Z,14.59
2022-10-28T17:02:30.700Z,14.65
2022-10-28T17:05:00.930Z,14.67
2022-10-28T17:07:29.899Z,14.70
2022-10-28T17:09:58.544Z,14.75
2022-10-28T17:12:28.639Z,14.74
2022-10-28T17:14:57.398Z,14.70
2022-10-28T17:17:27.323Z,14.57
2022-10-28T17:19:55.992Z,14.51
2022-10-28T17:22:24.639Z,14.45
2022-10-28T17:24:54.497Z,14.57
2022-10-28T17:27:23.223Z,14.65
2022-10-28T17:29:52.061Z,14.71
2022-10-28T17:32:20.775Z,14.73
2022-10-28T17:34:50.934Z,14.66
2022-10-28T17:37:19.660Z,14.71
2022-10-28T17:39:48.298Z,14.82
2022-10-28T17:42:16.967Z,14.88
2022-10-28T17:44:45.592Z,14.88
2022-10-28T17:47:14.243Z,14.87
2022-10-28T17:49:42.876Z,14.90
2022-10-28T17:52:14.309Z,14.98
2022-10-28T17:54:42.954Z,14.84
2022-10-28T17:57:11.561Z,14.61
2022-10-28T17:59:40.229Z,14.43
2022-10-28T18:02:08.714Z,14.40
2022-10-28T18:04:37.183Z,14.43
2022-10-28T18:07:05.835Z,14.35
2022-10-28T18:09:35.934Z,14.24
2022-10-28T18:12:06.607Z,14.27
2022-10-28T18:14:34.899Z,14.17
2022-10-28T18:17:03.512Z,14.03
2022-10-28T18:19:31.747Z,13.91
2022-10-28T18:22:00.336Z,13.87
2022-10-28T18:24:28.918Z,13.79
2022-10-28T18:26:58.943Z,13.75
2022-10-28T18:29:27.308Z,13.77
2022-10-28T18:31:56.753Z,13.77
2022-10-28T18:34:25.448Z,13.76
2022-10-28T18:36:54.115Z,13.70
2022-10-28T18:39:22.708Z,13.60
2022-10-28T18:41:51.580Z,13.57
2022-10-28T18:44:26.962Z,13.55
2022-10-28T18:46:55.614Z,13.60
2022-10-28T18:49:24.263Z,13.60
2022-10-28T18:51:52.538Z,13.65
2022-10-28T18:54:20.798Z,13.83
2022-10-28T18:56:53.577Z,14.03
2022-10-28T18:59:25.293Z,14.11
2022-10-28T19:01:53.959Z,14.09
2022-10-28T19:04:22.721Z,14.06
2022-10-28T19:06:51.311Z,14.08
2022-10-28T19:09:19.902Z,14.05
2022-10-28T19:11:48.598Z,14.01
2022-10-28T19:14:17.443Z,13.96
2022-10-28T19:16:47.424Z,13.88
2022-10-28T19:19:15.711Z,13.84
2022-10-28T19:21:44.349Z,13.88
2022-10-28T19:24:13.112Z,13.91
2022-10-28T19:26:41.834Z,13.84
2022-10-28T19:29:11.323Z,13.75
2022-10-28T19:31:41.890Z,13.80
2022-10-28T19:34:11.837Z,13.80
2022-10-28T19:36:40.484Z,13.81
2022-10-28T19:39:09.130Z,13.90
2022-10-28T19:41:37.779Z,13.91
2022-10-28T19:44:06.685Z,13.93
2022-10-28T19:46:37.003Z,13.89
2022-10-28T19:49:07.589Z,13.84
2022-10-28T19:51:39.815Z,13.74
2022-10-28T19:54:11.916Z,13.63
2022-10-28T19:56:42.686Z,13.50
2022-10-28T19:59:11.336Z,13.42
2022-10-28T20:01:41.459Z,13.45
2022-10-28T20:04:11.389Z,13.34
2022-10-28T20:06:41.988Z,13.23
2022-10-28T20:09:10.679Z,13.16
2022-10-28T20:11:40.371Z,13.14
2022-10-28T20:14:12.390Z,13.07
2022-10-28T20:16:43.696Z,13.11
2022-10-28T20:19:12.586Z,13.26
2022-10-28T20:21:44.010Z,13.25
2022-10-28T20:24:12.481Z,13.24
2022-10-28T20:26:41.214Z,13.19
2022-10-28T20:29:10.071Z,13.03
2022-10-28T20:31:39.608Z,12.86
2022-10-28T20:34:09.131Z,12.86
2022-10-28T20:36:40.149Z,12.78
2022-10-28T20:39:15.246Z,12.72
2022-10-28T20:41:45.991Z,12.63
2022-10-28T20:44:14.833Z,12.57
2022-10-28T20:46:45.024Z,12.53
2022-10-28T20:49:13.875Z,12.53
2022-10-28T20:51:43.035Z,12.62
2022-10-28T20:54:12.728Z,12.61
2022-10-28T20:56:42.250Z,12.49
2022-10-28T20:59:11.150Z,12.52
2022-10-28T21:01:41.475Z,12.60
2022-10-28T21:04:12.414Z,12.59
2022-10-28T21:06:41.024Z,12.56
2022-10-28T21:09:11.801Z,12.64
2022-10-28T21:11:41.573Z,12.73
2022-10-28T21:14:10.395Z,12.75
2022-10-28T21:16:39.093Z,12.67
2022-10-28T21:19:07.408Z,12.60
2022-10-28T21:21:36.084Z,12.39
2022-10-28T21:24:04.951Z,12.18
2022-10-28T21:26:33.259Z,12.06
2022-10-28T21:29:03.252Z,12.06
2022-10-28T21:31:31.895Z,12.02
2022-10-28T21:34:02.996Z,11.90
2022-10-28T21:36:34.428Z,11.77
2022-10-28T21:39:03.064Z,11.56
2022-10-28T21:41:31.700Z,11.50
2022-10-28T21:44:00.399Z,11.35
2022-10-28T21:46:30.163Z,11.25
2022-10-28T21:48:58.966Z,11.14
2022-10-28T21:51:27.574Z,11.08
2022-10-28T21:53:56.130Z,11.04
2022-10-28T21:56:24.755Z,11.01
2022-10-28T21:58:53.396Z,10.99
2022-10-28T22:01:23.574Z,10.99
2022-10-28T22:03:55.541Z,11.06
2022-10-28T22:06:24.479Z,11.11
2022-10-28T22:08:55.009Z,11.12
2022-10-28T22:11:25.131Z,11.11
2022-10-28T22:13:58.576Z,11.05
2022-10-28T22:16:28.578Z,11.27
2022-10-28T22:19:00.103Z,11.44
2022-10-28T22:21:31.258Z,11.38
2022-10-28T22:24:00.291Z,11.28
2022-10-28T22:26:30.542Z,10.98
2022-10-28T22:28:59.462Z,10.75
2022-10-28T22:31:31.416Z,10.58
2022-10-28T22:34:02.214Z,10.39
2022-10-28T22:36:31.379Z,10.31
2022-10-28T22:39:00.181Z,10.12
2022-10-28T22:41:30.789Z,10.02
2022-10-28T22:44:01.727Z,9.93
2022-10-28T22:46:33.447Z,9.89
2022-10-28T22:49:03.413Z,9.95
2022-10-28T22:51:32.111Z,9.99
2022-10-28T22:54:00.532Z,10.00
2022-10-28T22:56:29.296Z,10.03
2022-10-28T22:59:00.505Z,10.00
2022-10-28T23:01:30.336Z,10.00
2022-10-28T23:04:00.971Z,9.89
2022-10-28T23:06:31.271Z,9.85
2022-10-28T23:08:59.882Z,9.90
2022-10-28T23:11:28.920Z,9.95
2022-10-28T23:13:57.604Z,9.99
2022-10-28T23:16:27.237Z,9.86
2022-10-28T23:18:56.043Z,9.75
2022-10-28T23:21:26.380Z,9.63
2022-10-28T23:23:57.459Z,9.66
2022-10-28T23:26:27.529Z,10.03
2022-10-28T23:28:58.066Z,10.13
2022-10-28T23:31:27.311Z,10.21
2022-10-28T23:33:56.501Z,10.32
2022-10-28T23:36:25.411Z,10.17
2022-10-28T23:38:56.919Z,10.05
2022-10-28T23:41:25.544Z,10.12
2022-10-28T23:43:54.155Z,10.36
2022-10-28T23:46:22.776Z,10.27
2022-10-28T23:48:51.125Z,10.11
2022-10-28T23:51:20.445Z,9.99
2022-10-28T23:53:49.097Z,10.11
2022-10-28T23:56:19.157Z,10.07
2022-10-28T23:58:47.578Z,10.08
